sensor_id;sensor_type;location;lat;lon;timestamp;pressure;altitude;pressure_sealevel;temperature;humidity
37904;BME280;23738;50.422;18.758;2023-08-31T00:00:02;97753.17;;;16.20;95.83
37904;BME280;23738;50.422;18.758;2023-08-31T00:02:52;97755.74;;;16.16;95.80
37904;BME280;23738;50.422;18.758;2023-08-31T00:06:23;97757.27;;;16.14;95.63
37904;BME280;23738;50.422;18.758;2023-08-31T00:09:53;97756.94;;;16.13;95.75
37904;BME280;23738;50.422;18.758;2023-08-31T00:13:22;97759.02;;;16.14;95.77
37904;BME280;23738;50.422;18.758;2023-08-31T00:16:31;97759.06;;;16.13;95.78
37904;BME280;23738;50.422;18.758;2023-08-31T00:19:02;97760.77;;;16.13;96.02
37904;BME280;23738;50.422;18.758;2023-08-31T00:21:49;97758.08;;;16.15;96.09
37904;BME280;23738;50.422;18.758;2023-08-31T00:24:18;97755.91;;;16.16;96.06
37904;BME280;23738;50.422;18.758;2023-08-31T00:26:51;97748.61;;;16.15;96.00
37904;BME280;23738;50.422;18.758;2023-08-31T00:29:20;97755.18;;;16.18;96.02
37904;BME280;23738;50.422;18.758;2023-08-31T00:32:49;97757.75;;;16.20;96.16
37904;BME280;23738;50.422;18.758;2023-08-31T00:35:41;97763.04;;;16.16;96.00
37904;BME280;23738;50.422;18.758;2023-08-31T00:39:18;97767.05;;;16.11;95.89
37904;BME280;23738;50.422;18.758;2023-08-31T00:42:09;97767.86;;;16.12;96.02
37904;BME280;23738;50.422;18.758;2023-08-31T00:45:39;97769.02;;;16.11;96.03
37904;BME280;23738;50.422;18.758;2023-08-31T00:49:08;97767.63;;;16.10;96.17
37904;BME280;23738;50.422;18.758;2023-08-31T00:52:35;97765.70;;;16.05;96.04
37904;BME280;23738;50.422;18.758;2023-08-31T00:56:02;97759.69;;;16.03;96.09
37904;BME280;23738;50.422;18.758;2023-08-31T00:59:31;97758.41;;;16.04;96.30
37904;BME280;23738;50.422;18.758;2023-08-31T01:02:42;97752.39;;;16.06;96.28
37904;BME280;23738;50.422;18.758;2023-08-31T01:05:55;97748.77;;;16.05;96.25
37904;BME280;23738;50.422;18.758;2023-08-31T01:08:50;97744.39;;;16.05;96.27
37904;BME280;23738;50.422;18.758;2023-08-31T01:12:20;97745.91;;;16.05;96.08
37904;BME280;23738;50.422;18.758;2023-08-31T01:15:03;97753.53;;;16.06;96.12
37904;BME280;23738;50.422;18.758;2023-08-31T01:17:55;97755.27;;;16.05;96.24
37904;BME280;23738;50.422;18.758;2023-08-31T01:21:20;97752.70;;;16.05;96.14
37904;BME280;23738;50.422;18.758;2023-08-31T01:24:23;97749.77;;;16.04;96.18
37904;BME280;23738;50.422;18.758;2023-08-31T01:27:53;97742.73;;;16.05;96.11
37904;BME280;23738;50.422;18.758;2023-08-31T01:30:43;97739.10;;;16.01;96.20
37904;BME280;23738;50.422;18.758;2023-08-31T01:33:13;97740.52;;;16.05;96.24
37904;BME280;23738;50.422;18.758;2023-08-31T01:36:44;97737.79;;;16.04;96.15
37904;BME280;23738;50.422;18.758;2023-08-31T01:40:07;97731.48;;;16.00;95.91
37904;BME280;23738;50.422;18.758;2023-08-31T01:43:41;97735.90;;;16.00;95.93
37904;BME280;23738;50.422;18.758;2023-08-31T01:47:11;97734.98;;;16.00;96.03
37904;BME280;23738;50.422;18.758;2023-08-31T01:50:43;97736.64;;;16.00;96.06
37904;BME280;23738;50.422;18.758;2023-08-31T01:54:12;97743.77;;;16.00;95.94
37904;BME280;23738;50.422;18.758;2023-08-31T01:57:21;97744.54;;;16.01;96.14
37904;BME280;23738;50.422;18.758;2023-08-31T02:00:48;97751.59;;;16.03;95.93
37904;BME280;23738;50.422;18.758;2023-08-31T02:04:17;97752.10;;;16.01;95.86
37904;BME280;23738;50.422;18.758;2023-08-31T02:07:27;97752.30;;;16.00;95.89
37904;BME280;23738;50.422;18.758;2023-08-31T02:10:56;97752.65;;;16.02;95.95
37904;BME280;23738;50.422;18.758;2023-08-31T02:14:31;97757.34;;;16.02;95.88
37904;BME280;23738;50.422;18.758;2023-08-31T02:18:06;97763.19;;;16.02;95.94
37904;BME280;23738;50.422;18.758;2023-08-31T02:21:47;97760.20;;;16.01;95.86
37904;BME280;23738;50.422;18.758;2023-08-31T02:24:57;97758.05;;;16.00;95.90
37904;BME280;23738;50.422;18.758;2023-08-31T02:28:16;97765.06;;;16.02;95.96
37904;BME280;23738;50.422;18.758;2023-08-31T02:31:45;97765.51;;;16.00;95.79
37904;BME280;23738;50.422;18.758;2023-08-31T02:35:14;97764.61;;;15.94;95.75
37904;BME280;23738;50.422;18.758;2023-08-31T02:38:43;97763.70;;;15.93;95.64
37904;BME280;23738;50.422;18.758;2023-08-31T02:42:19;97761.52;;;15.88;95.66
37904;BME280;23738;50.422;18.758;2023-08-31T02:46:01;97759.28;;;15.88;95.97
37904;BME280;23738;50.422;18.758;2023-08-31T02:49:30;97752.45;;;15.86;95.91
37904;BME280;23738;50.422;18.758;2023-08-31T02:53:00;97752.11;;;15.85;95.89
37904;BME280;23738;50.422;18.758;2023-08-31T02:55:49;97754.14;;;15.86;95.95
37904;BME280;23738;50.422;18.758;2023-08-31T02:59:21;97759.66;;;15.88;96.05
37904;BME280;23738;50.422;18.758;2023-08-31T03:02:51;97764.14;;;15.84;95.83
37904;BME280;23738;50.422;18.758;2023-08-31T03:06:18;97763.58;;;15.82;95.94
37904;BME280;23738;50.422;18.758;2023-08-31T03:09:48;97760.57;;;15.78;95.91
37904;BME280;23738;50.422;18.758;2023-08-31T03:13:14;97764.19;;;15.79;95.84
37904;BME280;23738;50.422;18.758;2023-08-31T03:16:43;97762.23;;;15.79;95.97
37904;BME280;23738;50.422;18.758;2023-08-31T03:20:11;97761.44;;;15.80;95.92
37904;BME280;23738;50.422;18.758;2023-08-31T03:23:49;97773.52;;;15.80;95.90
37904;BME280;23738;50.422;18.758;2023-08-31T03:27:16;97781.63;;;15.82;95.80
37904;BME280;23738;50.422;18.758;2023-08-31T03:30:04;97787.54;;;15.80;95.76
37904;BME280;23738;50.422;18.758;2023-08-31T03:32:56;97776.73;;;15.76;96.00
37904;BME280;23738;50.422;18.758;2023-08-31T03:35:52;97781.98;;;15.79;95.83
37904;BME280;23738;50.422;18.758;2023-08-31T03:38:22;97782.38;;;15.76;95.78
37904;BME280;23738;50.422;18.758;2023-08-31T03:41:17;97784.98;;;15.76;95.89
37904;BME280;23738;50.422;18.758;2023-08-31T03:44:17;97774.00;;;15.70;95.78
37904;BME280;23738;50.422;18.758;2023-08-31T03:47:46;97792.83;;;15.77;95.80
37904;BME280;23738;50.422;18.758;2023-08-31T03:50:38;97792.85;;;15.74;95.91
37904;BME280;23738;50.422;18.758;2023-08-31T03:53:52;97795.84;;;15.75;95.83
37904;BME280;23738;50.422;18.758;2023-08-31T03:56:43;97802.52;;;15.78;95.83
37904;BME280;23738;50.422;18.758;2023-08-31T03:59:14;97804.88;;;15.79;95.84
37904;BME280;23738;50.422;18.758;2023-08-31T04:02:03;97801.36;;;15.78;95.85
37904;BME280;23738;50.422;18.758;2023-08-31T04:04:49;97808.34;;;15.78;95.59
37904;BME280;23738;50.422;18.758;2023-08-31T04:07:21;97805.90;;;15.76;95.64
37904;BME280;23738;50.422;18.758;2023-08-31T04:10:28;97805.40;;;15.74;95.48
37904;BME280;23738;50.422;18.758;2023-08-31T04:13:07;97797.54;;;15.75;95.79
37904;BME280;23738;50.422;18.758;2023-08-31T04:15:56;97799.27;;;15.78;95.85
37904;BME280;23738;50.422;18.758;2023-08-31T04:18:35;97801.67;;;15.77;95.64
37904;BME280;23738;50.422;18.758;2023-08-31T04:21:13;97803.46;;;15.76;95.64
37904;BME280;23738;50.422;18.758;2023-08-31T04:24:02;97805.58;;;15.75;95.62
37904;BME280;23738;50.422;18.758;2023-08-31T04:27:06;97807.45;;;15.76;95.70
37904;BME280;23738;50.422;18.758;2023-08-31T04:29:38;97804.09;;;15.79;95.80
37904;BME280;23738;50.422;18.758;2023-08-31T04:32:08;97803.20;;;15.81;95.87
37904;BME280;23738;50.422;18.758;2023-08-31T04:35:37;97807.77;;;15.85;96.02
37904;BME280;23738;50.422;18.758;2023-08-31T04:38:23;97812.12;;;15.87;95.95
37904;BME280;23738;50.422;18.758;2023-08-31T04:41:02;97813.29;;;15.89;95.91
37904;BME280;23738;50.422;18.758;2023-08-31T04:43:34;97810.54;;;15.91;96.00
37904;BME280;23738;50.422;18.758;2023-08-31T04:46:25;97815.66;;;15.97;96.12
37904;BME280;23738;50.422;18.758;2023-08-31T04:50:11;97807.17;;;16.00;96.03
37904;BME280;23738;50.422;18.758;2023-08-31T04:53:49;97806.45;;;16.02;95.97
37904;BME280;23738;50.422;18.758;2023-08-31T04:57:28;97804.36;;;16.01;95.72
37904;BME280;23738;50.422;18.758;2023-08-31T05:00:49;97806.98;;;16.02;95.89
37904;BME280;23738;50.422;18.758;2023-08-31T05:04:19;97810.96;;;16.00;95.96
37904;BME280;23738;50.422;18.758;2023-08-31T05:07:48;97814.34;;;16.02;96.07
37904;BME280;23738;50.422;18.758;2023-08-31T05:11:17;97818.41;;;16.05;96.06
37904;BME280;23738;50.422;18.758;2023-08-31T05:14:46;97820.59;;;16.09;96.18
37904;BME280;23738;50.422;18.758;2023-08-31T05:18:13;97829.79;;;16.14;96.00
37904;BME280;23738;50.422;18.758;2023-08-31T05:21:43;97833.77;;;16.11;95.93
37904;BME280;23738;50.422;18.758;2023-08-31T05:25:09;97837.73;;;16.13;96.15
37904;BME280;23738;50.422;18.758;2023-08-31T05:31:39;97840.98;;;16.20;96.24
37904;BME280;23738;50.422;18.758;2023-08-31T05:35:14;97847.40;;;16.22;96.09
37904;BME280;23738;50.422;18.758;2023-08-31T05:38:25;97846.17;;;16.22;96.08
37904;BME280;23738;50.422;18.758;2023-08-31T05:41:54;97848.33;;;16.23;96.16
37904;BME280;23738;50.422;18.758;2023-08-31T05:45:33;97852.04;;;16.26;95.99
37904;BME280;23738;50.422;18.758;2023-08-31T05:48:44;97855.67;;;16.28;95.96
37904;BME280;23738;50.422;18.758;2023-08-31T05:52:13;97854.48;;;16.32;96.06
37904;BME280;23738;50.422;18.758;2023-08-31T05:55:43;97857.24;;;16.31;95.84
37904;BME280;23738;50.422;18.758;2023-08-31T05:59:12;97860.31;;;16.33;96.00
37904;BME280;23738;50.422;18.758;2023-08-31T06:02:41;97864.63;;;16.39;96.10
37904;BME280;23738;50.422;18.758;2023-08-31T06:06:12;97863.96;;;16.43;96.07
37904;BME280;23738;50.422;18.758;2023-08-31T06:09:59;97863.58;;;16.47;96.22
37904;BME280;23738;50.422;18.758;2023-08-31T06:13:28;97867.30;;;16.51;96.26
37904;BME280;23738;50.422;18.758;2023-08-31T06:16:58;97873.44;;;16.59;96.23
37904;BME280;23738;50.422;18.758;2023-08-31T06:20:42;97871.68;;;16.62;95.97
37904;BME280;23738;50.422;18.758;2023-08-31T06:24:20;97874.73;;;16.63;95.93
37904;BME280;23738;50.422;18.758;2023-08-31T06:27:52;97872.23;;;16.64;95.81
37904;BME280;23738;50.422;18.758;2023-08-31T06:31:22;97868.27;;;16.68;96.10
37904;BME280;23738;50.422;18.758;2023-08-31T06:34:31;97871.44;;;16.85;96.37
37904;BME280;23738;50.422;18.758;2023-08-31T06:37:41;97871.55;;;17.09;96.56
37904;BME280;23738;50.422;18.758;2023-08-31T06:40:54;97870.09;;;17.30;96.38
37904;BME280;23738;50.422;18.758;2023-08-31T06:44:01;97874.38;;;17.51;96.79
37904;BME280;23738;50.422;18.758;2023-08-31T06:47:17;97878.63;;;17.75;96.51
37904;BME280;23738;50.422;18.758;2023-08-31T06:50:08;97877.59;;;17.95;96.41
37904;BME280;23738;50.422;18.758;2023-08-31T06:53:38;97877.74;;;18.18;96.18
37904;BME280;23738;50.422;18.758;2023-08-31T06:56:34;97874.76;;;18.51;96.17
37904;BME280;23738;50.422;18.758;2023-08-31T06:59:43;97881.59;;;18.82;95.52
37904;BME280;23738;50.422;18.758;2023-08-31T07:03:13;97883.77;;;19.19;95.91
37904;BME280;23738;50.422;18.758;2023-08-31T07:06:43;97889.21;;;19.28;95.34
37904;BME280;23738;50.422;18.758;2023-08-31T07:10:02;97892.26;;;19.37;95.15
37904;BME280;23738;50.422;18.758;2023-08-31T07:13:19;97895.66;;;19.41;93.99
37904;BME280;23738;50.422;18.758;2023-08-31T07:16:08;97893.90;;;19.47;93.69
37904;BME280;23738;50.422;18.758;2023-08-31T07:18:38;97896.68;;;19.52;93.73
37904;BME280;23738;50.422;18.758;2023-08-31T07:21:27;97897.58;;;19.74;93.47
37904;BME280;23738;50.422;18.758;2023-08-31T07:24:56;97906.84;;;20.15;93.52
37904;BME280;23738;50.422;18.758;2023-08-31T07:28:26;97911.04;;;20.23;92.28
37904;BME280;23738;50.422;18.758;2023-08-31T07:31:50;97916.89;;;20.23;91.37
37904;BME280;23738;50.422;18.758;2023-08-31T07:34:38;97914.81;;;20.19;91.44
37904;BME280;23738;50.422;18.758;2023-08-31T07:38:07;97914.08;;;20.26;90.92
37904;BME280;23738;50.422;18.758;2023-08-31T07:41:16;97913.84;;;20.33;90.55
37904;BME280;23738;50.422;18.758;2023-08-31T07:44:46;97916.51;;;20.48;90.66
37904;BME280;23738;50.422;18.758;2023-08-31T07:48:15;97922.52;;;20.66;89.22
37904;BME280;23738;50.422;18.758;2023-08-31T07:51:44;97923.77;;;20.61;87.92
37904;BME280;23738;50.422;18.758;2023-08-31T07:55:13;97926.97;;;20.50;87.62
37904;BME280;23738;50.422;18.758;2023-08-31T07:58:44;97923.39;;;20.44;87.63
37904;BME280;23738;50.422;18.758;2023-08-31T08:02:12;97930.20;;;20.36;87.44
37904;BME280;23738;50.422;18.758;2023-08-31T08:05:41;97933.48;;;20.29;87.27
37904;BME280;23738;50.422;18.758;2023-08-31T08:09:10;97935.14;;;20.32;87.27
37904;BME280;23738;50.422;18.758;2023-08-31T08:12:40;97941.89;;;20.47;86.66
37904;BME280;23738;50.422;18.758;2023-08-31T08:16:09;97943.91;;;20.68;86.87
37904;BME280;23738;50.422;18.758;2023-08-31T08:19:49;97938.41;;;21.15;86.97
37904;BME280;23738;50.422;18.758;2023-08-31T08:22:58;97939.33;;;21.72;86.84
37904;BME280;23738;50.422;18.758;2023-08-31T08:25:28;97940.16;;;22.04;84.68
37904;BME280;23738;50.422;18.758;2023-08-31T08:28:17;97937.08;;;22.24;84.82
37904;BME280;23738;50.422;18.758;2023-08-31T08:31:46;97941.79;;;22.41;84.27
37904;BME280;23738;50.422;18.758;2023-08-31T08:34:58;97942.67;;;22.55;83.42
37904;BME280;23738;50.422;18.758;2023-08-31T08:37:30;97938.46;;;22.83;83.20
37904;BME280;23738;50.422;18.758;2023-08-31T08:40:23;97949.08;;;23.04;82.64
37904;BME280;23738;50.422;18.758;2023-08-31T08:43:12;97948.73;;;23.08;81.87
37904;BME280;23738;50.422;18.758;2023-08-31T08:46:05;97949.15;;;22.96;80.75
37904;BME280;23738;50.422;18.758;2023-08-31T08:49:31;97950.23;;;22.85;80.72
37904;BME280;23738;50.422;18.758;2023-08-31T08:52:06;97950.36;;;22.87;79.95
37904;BME280;23738;50.422;18.758;2023-08-31T08:54:37;97950.46;;;22.95;78.66
37904;BME280;23738;50.422;18.758;2023-08-31T08:57:07;97954.05;;;23.07;78.79
37904;BME280;23738;50.422;18.758;2023-08-31T08:59:37;97953.09;;;23.28;79.07
37904;BME280;23738;50.422;18.758;2023-08-31T09:02:10;97954.17;;;23.57;78.97
37904;BME280;23738;50.422;18.758;2023-08-31T09:04:40;97961.86;;;23.77;77.56
37904;BME280;23738;50.422;18.758;2023-08-31T09:07:12;97959.47;;;23.63;75.77
37904;BME280;23738;50.422;18.758;2023-08-31T09:09:55;97957.30;;;23.41;76.35
37904;BME280;23738;50.422;18.758;2023-08-31T09:12:27;97964.58;;;23.38;76.31
37904;BME280;23738;50.422;18.758;2023-08-31T09:15:01;97962.41;;;23.35;75.94
37904;BME280;23738;50.422;18.758;2023-08-31T09:17:43;97955.20;;;23.24;75.60
37904;BME280;23738;50.422;18.758;2023-08-31T09:20:24;97960.48;;;23.19;74.99
37904;BME280;23738;50.422;18.758;2023-08-31T09:23:05;97966.13;;;23.35;75.05
37904;BME280;23738;50.422;18.758;2023-08-31T09:25:46;97967.75;;;23.52;74.76
37904;BME280;23738;50.422;18.758;2023-08-31T09:28:22;97968.24;;;23.72;74.28
37904;BME280;23738;50.422;18.758;2023-08-31T09:31:06;97966.81;;;23.94;74.03
37904;BME280;23738;50.422;18.758;2023-08-31T09:33:37;97967.03;;;24.05;73.88
37904;BME280;23738;50.422;18.758;2023-08-31T09:36:08;97967.96;;;24.21;72.89
37904;BME280;23738;50.422;18.758;2023-08-31T09:38:44;97976.73;;;24.39;73.03
37904;BME280;23738;50.422;18.758;2023-08-31T09:41:15;97975.10;;;24.54;73.30
37904;BME280;23738;50.422;18.758;2023-08-31T09:43:47;97972.98;;;24.74;72.78
37904;BME280;23738;50.422;18.758;2023-08-31T09:46:20;97980.77;;;24.62;71.08
37904;BME280;23738;50.422;18.758;2023-08-31T09:48:51;97981.14;;;24.42;71.53
37904;BME280;23738;50.422;18.758;2023-08-31T09:51:30;97983.41;;;24.26;70.83
37904;BME280;23738;50.422;18.758;2023-08-31T09:54:01;97983.45;;;24.18;70.78
37904;BME280;23738;50.422;18.758;2023-08-31T09:56:35;97974.79;;;24.38;71.25
37904;BME280;23738;50.422;18.758;2023-08-31T09:59:30;97971.86;;;24.71;70.14
37904;BME280;23738;50.422;18.758;2023-08-31T10:02:20;97975.73;;;24.89;68.92
37904;BME280;23738;50.422;18.758;2023-08-31T10:05:31;97972.89;;;25.02;68.65
37904;BME280;23738;50.422;18.758;2023-08-31T10:30:40;97990.55;;;24.13;65.23
37904;BME280;23738;50.422;18.758;2023-08-31T10:33:25;97987.81;;;23.93;65.05
37904;BME280;23738;50.422;18.758;2023-08-31T10:35:54;97986.80;;;23.81;65.17
37904;BME280;23738;50.422;18.758;2023-08-31T10:38:28;97985.25;;;24.03;66.14
37904;BME280;23738;50.422;18.758;2023-08-31T10:41:19;97987.73;;;24.31;65.76
37904;BME280;23738;50.422;18.758;2023-08-31T10:43:51;97986.20;;;24.66;65.48
37904;BME280;23738;50.422;18.758;2023-08-31T10:46:26;97985.48;;;24.82;63.82
37904;BME280;23738;50.422;18.758;2023-08-31T10:48:57;97988.94;;;25.00;63.72
37904;BME280;23738;50.422;18.758;2023-08-31T10:51:29;97985.00;;;24.93;63.40
37904;BME280;23738;50.422;18.758;2023-08-31T10:54:10;97988.96;;;24.90;62.94
37904;BME280;23738;50.422;18.758;2023-08-31T10:57:02;97987.48;;;24.83;62.26
37904;BME280;23738;50.422;18.758;2023-08-31T10:59:46;97992.34;;;24.66;63.13
37904;BME280;23738;50.422;18.758;2023-08-31T11:02:33;97988.23;;;24.49;62.76
37904;BME280;23738;50.422;18.758;2023-08-31T11:05:07;97986.21;;;24.29;62.65
37904;BME280;23738;50.422;18.758;2023-08-31T11:07:37;97982.76;;;24.39;62.71
37904;BME280;23738;50.422;18.758;2023-08-31T11:10:13;97981.39;;;24.58;62.01
37904;BME280;23738;50.422;18.758;2023-08-31T11:12:44;97981.59;;;24.73;61.67
37904;BME280;23738;50.422;18.758;2023-08-31T11:15:16;97975.52;;;24.82;61.71
37904;BME280;23738;50.422;18.758;2023-08-31T11:17:46;97976.23;;;24.84;61.25
37904;BME280;23738;50.422;18.758;2023-08-31T11:20:16;97978.13;;;24.76;61.17
37904;BME280;23738;50.422;18.758;2023-08-31T11:22:48;97977.46;;;24.67;61.44
37904;BME280;23738;50.422;18.758;2023-08-31T11:25:18;97977.08;;;24.58;61.59
37904;BME280;23738;50.422;18.758;2023-08-31T11:27:57;97984.21;;;24.39;60.71
37904;BME280;23738;50.422;18.758;2023-08-31T11:30:28;97990.88;;;24.20;61.42
37904;BME280;23738;50.422;18.758;2023-08-31T11:33:03;97994.95;;;24.01;61.17
37904;BME280;23738;50.422;18.758;2023-08-31T11:35:35;97993.74;;;23.79;61.38
37904;BME280;23738;50.422;18.758;2023-08-31T11:38:05;97990.99;;;23.58;61.11
37904;BME280;23738;50.422;18.758;2023-08-31T11:40:35;97984.09;;;23.34;61.44
37904;BME280;23738;50.422;18.758;2023-08-31T11:43:05;97983.36;;;23.13;61.77
37904;BME280;23738;50.422;18.758;2023-08-31T11:45:36;97988.77;;;22.98;62.19
37904;BME280;23738;50.422;18.758;2023-08-31T11:48:07;97998.92;;;22.85;62.50
37904;BME280;23738;50.422;18.758;2023-08-31T11:50:37;98001.94;;;22.72;62.71
37904;BME280;23738;50.422;18.758;2023-08-31T11:53:10;97998.59;;;22.56;63.08
37904;BME280;23738;50.422;18.758;2023-08-31T11:55:50;97991.48;;;22.39;63.41
37904;BME280;23738;50.422;18.758;2023-08-31T11:58:21;97991.27;;;22.23;63.69
37904;BME280;23738;50.422;18.758;2023-08-31T12:00:59;98002.25;;;22.08;63.92
37904;BME280;23738;50.422;18.758;2023-08-31T12:03:43;98009.54;;;21.93;64.19
37904;BME280;23738;50.422;18.758;2023-08-31T12:06:16;98033.35;;;21.71;64.53
37904;BME280;23738;50.422;18.758;2023-08-31T12:08:46;98051.77;;;21.29;64.86
37904;BME280;23738;50.422;18.758;2023-08-31T12:11:16;98064.91;;;20.83;66.00
37904;BME280;23738;50.422;18.758;2023-08-31T12:13:47;98066.63;;;20.45;65.77
37904;BME280;23738;50.422;18.758;2023-08-31T12:16:17;98066.65;;;20.12;66.49
37904;BME280;23738;50.422;18.758;2023-08-31T12:18:47;98074.58;;;19.88;66.95
37904;BME280;23738;50.422;18.758;2023-08-31T12:21:16;98080.27;;;19.70;67.29
37904;BME280;23738;50.422;18.758;2023-08-31T12:23:48;98083.61;;;19.58;67.94
37904;BME280;23738;50.422;18.758;2023-08-31T12:26:17;98074.08;;;19.54;68.25
37904;BME280;23738;50.422;18.758;2023-08-31T12:28:47;98070.15;;;19.50;68.57
37904;BME280;23738;50.422;18.758;2023-08-31T12:31:16;98071.17;;;19.52;68.71
37904;BME280;23738;50.422;18.758;2023-08-31T12:33:45;98068.30;;;19.54;69.25
37904;BME280;23738;50.422;18.758;2023-08-31T12:36:15;98061.27;;;19.50;69.44
37904;BME280;23738;50.422;18.758;2023-08-31T12:38:45;98065.02;;;19.51;70.04
37904;BME280;23738;50.422;18.758;2023-08-31T12:41:14;98070.27;;;19.51;70.15
37904;BME280;23738;50.422;18.758;2023-08-31T12:43:43;98067.42;;;19.50;70.29
37904;BME280;23738;50.422;18.758;2023-08-31T12:46:13;98067.27;;;19.52;70.60
37904;BME280;23738;50.422;18.758;2023-08-31T12:48:42;98063.29;;;19.55;70.93
37904;BME280;23738;50.422;18.758;2023-08-31T12:51:11;98060.98;;;19.58;71.15
37904;BME280;23738;50.422;18.758;2023-08-31T12:53:41;98054.45;;;19.60;71.47
37904;BME280;23738;50.422;18.758;2023-08-31T12:56:10;98050.71;;;19.60;71.66
37904;BME280;23738;50.422;18.758;2023-08-31T12:58:40;98057.09;;;19.61;71.91
37904;BME280;23738;50.422;18.758;2023-08-31T13:01:09;98066.79;;;19.61;72.21
37904;BME280;23738;50.422;18.758;2023-08-31T13:03:38;98069.94;;;19.57;72.27
37904;BME280;23738;50.422;18.758;2023-08-31T13:06:08;98073.09;;;19.56;72.42
37904;BME280;23738;50.422;18.758;2023-08-31T13:08:37;98078.25;;;19.57;72.79
37904;BME280;23738;50.422;18.758;2023-08-31T13:11:07;98080.83;;;19.59;73.19
37904;BME280;23738;50.422;18.758;2023-08-31T13:13:36;98078.41;;;19.61;73.37
37904;BME280;23738;50.422;18.758;2023-08-31T13:16:05;98077.66;;;19.61;73.43
37904;BME280;23738;50.422;18.758;2023-08-31T13:18:34;98072.20;;;19.63;73.77
37904;BME280;23738;50.422;18.758;2023-08-31T13:21:04;98067.27;;;19.68;74.01
37904;BME280;23738;50.422;18.758;2023-08-31T13:23:33;98071.27;;;19.75;74.33
37904;BME280;23738;50.422;18.758;2023-08-31T13:26:03;98075.50;;;19.83;74.41
37904;BME280;23738;50.422;18.758;2023-08-31T13:28:33;98074.80;;;19.87;74.61
37904;BME280;23738;50.422;18.758;2023-08-31T13:31:02;98080.41;;;19.90;74.67
37904;BME280;23738;50.422;18.758;2023-08-31T13:33:31;98078.33;;;19.91;74.97
37904;BME280;23738;50.422;18.758;2023-08-31T13:36:01;98074.52;;;19.87;75.08
37904;BME280;23738;50.422;18.758;2023-08-31T13:38:31;98083.64;;;19.86;75.17
37904;BME280;23738;50.422;18.758;2023-08-31T13:41:01;98085.36;;;19.87;75.38
37904;BME280;23738;50.422;18.758;2023-08-31T13:43:31;98082.14;;;19.91;75.56
37904;BME280;23738;50.422;18.758;2023-08-31T13:46:01;98082.09;;;19.93;75.75
37904;BME280;23738;50.422;18.758;2023-08-31T13:48:32;98081.45;;;19.94;75.60
37904;BME280;23738;50.422;18.758;2023-08-31T13:51:01;98079.73;;;19.94;75.76
37904;BME280;23738;50.422;18.758;2023-08-31T13:53:31;98084.01;;;19.96;75.72
37904;BME280;23738;50.422;18.758;2023-08-31T13:56:00;98089.04;;;20.04;75.77
37904;BME280;23738;50.422;18.758;2023-08-31T13:58:29;98088.84;;;20.24;76.19
37904;BME280;23738;50.422;18.758;2023-08-31T14:01:01;98092.13;;;20.43;76.29
37904;BME280;23738;50.422;18.758;2023-08-31T14:03:31;98092.95;;;20.53;76.37
37904;BME280;23738;50.422;18.758;2023-08-31T14:06:01;98095.73;;;20.59;76.17
37904;BME280;23738;50.422;18.758;2023-08-31T14:08:31;98094.55;;;20.58;76.23
37904;BME280;23738;50.422;18.758;2023-08-31T14:11:01;98094.17;;;20.60;76.19
37904;BME280;23738;50.422;18.758;2023-08-31T14:13:31;98095.45;;;20.64;76.30
37904;BME280;23738;50.422;18.758;2023-08-31T14:16:01;98095.21;;;20.68;76.40
37904;BME280;23738;50.422;18.758;2023-08-31T14:18:31;98096.96;;;20.72;76.44
37904;BME280;23738;50.422;18.758;2023-08-31T14:21:00;98087.42;;;20.77;76.25
37904;BME280;23738;50.422;18.758;2023-08-31T14:23:31;98087.33;;;20.79;76.15
37904;BME280;23738;50.422;18.758;2023-08-31T14:26:03;98085.60;;;20.80;76.13
37904;BME280;23738;50.422;18.758;2023-08-31T14:28:34;98087.59;;;20.81;76.14
37904;BME280;23738;50.422;18.758;2023-08-31T14:31:06;98084.59;;;20.80;75.94
37904;BME280;23738;50.422;18.758;2023-08-31T14:33:35;98083.78;;;20.79;75.70
37904;BME280;23738;50.422;18.758;2023-08-31T14:36:05;98083.36;;;20.77;75.77
37904;BME280;23738;50.422;18.758;2023-08-31T14:38:34;98086.17;;;20.75;75.41
37904;BME280;23738;50.422;18.758;2023-08-31T14:41:04;98087.67;;;20.74;75.63
37904;BME280;23738;50.422;18.758;2023-08-31T14:43:34;98092.08;;;20.74;75.36
37904;BME280;23738;50.422;18.758;2023-08-31T14:46:04;98090.94;;;20.75;75.50
37904;BME280;23738;50.422;18.758;2023-08-31T14:48:34;98088.25;;;20.74;75.66
37904;BME280;23738;50.422;18.758;2023-08-31T14:51:03;98090.41;;;20.62;75.31
37904;BME280;23738;50.422;18.758;2023-08-31T14:53:33;98096.71;;;20.51;75.32
37904;BME280;23738;50.422;18.758;2023-08-31T14:56:03;98096.36;;;20.44;75.42
37904;BME280;23738;50.422;18.758;2023-08-31T14:58:33;98097.33;;;20.44;75.53
37904;BME280;23738;50.422;18.758;2023-08-31T15:01:03;98102.38;;;20.49;75.70
37904;BME280;23738;50.422;18.758;2023-08-31T15:03:32;98107.81;;;20.54;75.85
37904;BME280;23738;50.422;18.758;2023-08-31T15:06:01;98108.77;;;20.58;75.87
37904;BME280;23738;50.422;18.758;2023-08-31T15:08:38;98112.88;;;20.64;76.04
37904;BME280;23738;50.422;18.758;2023-08-31T15:11:08;98113.58;;;20.62;76.06
37904;BME280;23738;50.422;18.758;2023-08-31T15:13:37;98115.73;;;20.62;75.92
37904;BME280;23738;50.422;18.758;2023-08-31T15:16:07;98114.61;;;20.60;75.67
37904;BME280;23738;50.422;18.758;2023-08-31T15:18:36;98113.88;;;20.56;75.52
37904;BME280;23738;50.422;18.758;2023-08-31T15:21:05;98112.43;;;20.57;75.67
37904;BME280;23738;50.422;18.758;2023-08-31T15:23:35;98113.39;;;20.54;75.64
37904;BME280;23738;50.422;18.758;2023-08-31T15:26:04;98113.02;;;20.52;75.58
37904;BME280;23738;50.422;18.758;2023-08-31T15:28:34;98116.80;;;20.49;75.38
37904;BME280;23738;50.422;18.758;2023-08-31T15:31:03;98118.89;;;20.46;75.39
37904;BME280;23738;50.422;18.758;2023-08-31T15:33:33;98125.83;;;20.43;75.55